sensor_id;sensor_type;location;lat;lon;timestamp;P1;durP1;ratioP1;P2;durP2;ratioP2
33840;SDS011;20142;28.494;-16.312;2023-03-21T00:02:37;9.93;;;1.40;;
33840;SDS011;20142;28.494;-16.312;2023-03-21T00:07:39;8.73;;;1.20;;
33840;SDS011;20142;28.494;-16.312;2023-03-21T00:12:40;8.63;;;1.35;;
33840;SDS011;20142;28.494;-16.312;2023-03-21T00:17:42;13.05;;;1.48;;
33840;SDS011;20142;28.494;-16.312;2023-03-21T00:22:45;9.43;;;1.42;;
33840;SDS011;20142;28.494;-16.312;2023-03-21T00:27:47;8.05;;;1.27;;
33840;SDS011;20142;28.494;-16.312;2023-03-21T00:32:48;10.70;;;1.20;;
33840;SDS011;20142;28.494;-16.312;2023-03-21T00:37:50;10.25;;;1.33;;
33840;SDS011;20142;28.494;-16.312;2023-03-21T00:42:52;9.65;;;1.60;;
33840;SDS011;20142;28.494;-16.312;2023-03-21T00:47:53;8.73;;;1.48;;
33840;SDS011;20142;28.494;-16.312;2023-03-21T00:52:55;14.27;;;1.50;;
33840;SDS011;20142;28.494;-16.312;2023-03-21T00:57:57;10.55;;;1.15;;
33840;SDS011;20142;28.494;-16.312;2023-03-21T01:03:04;12.55;;;1.23;;
33840;SDS011;20142;28.494;-16.312;2023-03-21T01:08:09;13.57;;;0.93;;
33840;SDS011;20142;28.494;-16.312;2023-03-21T01:13:19;10.90;;;1.33;;
33840;SDS011;20142;28.494;-16.312;2023-03-21T01:18:24;9.15;;;1.08;;
33840;SDS011;20142;28.494;-16.312;2023-03-21T01:23:28;10.05;;;1.17;;
33840;SDS011;20142;28.494;-16.312;2023-03-21T01:28:30;9.32;;;1.23;;
33840;SDS011;20142;28.494;-16.312;2023-03-21T01:33:33;14.02;;;1.80;;
33840;SDS011;20142;28.494;-16.312;2023-03-21T01:38:35;14.02;;;1.50;;
33840;SDS011;20142;28.494;-16.312;2023-03-21T01:43:37;8.43;;;1.25;;
33840;SDS011;20142;28.494;-16.312;2023-03-21T01:48:40;11.10;;;1.33;;
33840;SDS011;20142;28.494;-16.312;2023-03-21T01:53:44;7.47;;;1.20;;
33840;SDS011;20142;28.494;-16.312;2023-03-21T01:58:47;11.32;;;1.27;;
33840;SDS011;20142;28.494;-16.312;2023-03-21T02:03:51;13.07;;;1.40;;
33840;SDS011;20142;28.494;-16.312;2023-03-21T02:08:52;7.32;;;1.40;;
33840;SDS011;20142;28.494;-16.312;2023-03-21T02:13:55;8.77;;;1.73;;
33840;SDS011;20142;28.494;-16.312;2023-03-21T02:31:08;17.60;;;1.83;;
33840;SDS011;20142;28.494;-16.312;2023-03-21T02:36:26;10.55;;;1.77;;
33840;SDS011;20142;28.494;-16.312;2023-03-21T02:51:59;16.10;;;1.77;;
33840;SDS011;20142;28.494;-16.312;2023-03-21T02:57:05;17.25;;;1.88;;
33840;SDS011;20142;28.494;-16.312;2023-03-21T03:02:09;11.27;;;1.45;;
33840;SDS011;20142;28.494;-16.312;2023-03-21T03:12:56;11.75;;;1.90;;
33840;SDS011;20142;28.494;-16.312;2023-03-21T03:24:07;13.02;;;1.90;;
33840;SDS011;20142;28.494;-16.312;2023-03-21T03:29:43;10.13;;;1.27;;
33840;SDS011;20142;28.494;-16.312;2023-03-21T03:34:51;14.90;;;1.63;;
33840;SDS011;20142;28.494;-16.312;2023-03-21T03:40:03;15.68;;;2.15;;
33840;SDS011;20142;28.494;-16.312;2023-03-21T03:45:11;10.68;;;1.30;;
33840;SDS011;20142;28.494;-16.312;2023-03-21T03:50:16;13.43;;;1.90;;
33840;SDS011;20142;28.494;-16.312;2023-03-21T03:55:28;13.95;;;1.73;;
33840;SDS011;20142;28.494;-16.312;2023-03-21T04:00:34;14.73;;;1.75;;
33840;SDS011;20142;28.494;-16.312;2023-03-21T04:05:35;10.95;;;1.38;;
33840;SDS011;20142;28.494;-16.312;2023-03-21T04:10:37;7.88;;;1.73;;
33840;SDS011;20142;28.494;-16.312;2023-03-21T04:15:40;6.88;;;1.27;;
33840;SDS011;20142;28.494;-16.312;2023-03-21T04:20:44;13.88;;;1.80;;
33840;SDS011;20142;28.494;-16.312;2023-03-21T04:25:47;20.83;;;2.20;;
33840;SDS011;20142;28.494;-16.312;2023-03-21T04:30:50;17.35;;;2.05;;
33840;SDS011;20142;28.494;-16.312;2023-03-21T04:35:52;13.77;;;2.10;;
33840;SDS011;20142;28.494;-16.312;2023-03-21T04:40:59;13.95;;;2.00;;
33840;SDS011;20142;28.494;-16.312;2023-03-21T04:46:01;14.38;;;2.05;;
33840;SDS011;20142;28.494;-16.312;2023-03-21T04:51:02;10.38;;;1.98;;
33840;SDS011;20142;28.494;-16.312;2023-03-21T04:56:05;14.52;;;1.90;;
33840;SDS011;20142;28.494;-16.312;2023-03-21T05:01:07;9.52;;;1.48;;
33840;SDS011;20142;28.494;-16.312;2023-03-21T05:06:09;14.10;;;1.95;;
33840;SDS011;20142;28.494;-16.312;2023-03-21T05:11:10;12.30;;;1.48;;
33840;SDS011;20142;28.494;-16.312;2023-03-21T05:16:12;12.93;;;2.42;;
33840;SDS011;20142;28.494;-16.312;2023-03-21T05:21:14;11.82;;;1.52;;
33840;SDS011;20142;28.494;-16.312;2023-03-21T05:26:17;10.68;;;1.50;;
33840;SDS011;20142;28.494;-16.312;2023-03-21T05:31:20;13.18;;;1.40;;
33840;SDS011;20142;28.494;-16.312;2023-03-21T05:36:22;10.48;;;1.50;;
33840;SDS011;20142;28.494;-16.312;2023-03-21T05:41:24;9.43;;;1.55;;
33840;SDS011;20142;28.494;-16.312;2023-03-21T05:46:25;11.38;;;1.88;;
33840;SDS011;20142;28.494;-16.312;2023-03-21T05:51:27;11.48;;;1.60;;
33840;SDS011;20142;28.494;-16.312;2023-03-21T05:56:29;15.20;;;1.67;;
33840;SDS011;20142;28.494;-16.312;2023-03-21T06:01:30;14.15;;;2.28;;
33840;SDS011;20142;28.494;-16.312;2023-03-21T06:06:32;13.63;;;2.08;;
33840;SDS011;20142;28.494;-16.312;2023-03-21T06:11:35;14.07;;;1.90;;
33840;SDS011;20142;28.494;-16.312;2023-03-21T06:16:38;14.88;;;1.88;;
33840;SDS011;20142;28.494;-16.312;2023-03-21T06:21:39;12.90;;;2.42;;
33840;SDS011;20142;28.494;-16.312;2023-03-21T06:26:41;11.50;;;1.88;;
33840;SDS011;20142;28.494;-16.312;2023-03-21T06:31:44;19.52;;;2.40;;
33840;SDS011;20142;28.494;-16.312;2023-03-21T06:36:45;11.55;;;2.15;;
33840;SDS011;20142;28.494;-16.312;2023-03-21T06:41:47;26.15;;;3.17;;
33840;SDS011;20142;28.494;-16.312;2023-03-21T06:46:49;22.73;;;2.90;;
33840;SDS011;20142;28.494;-16.312;2023-03-21T06:51:52;14.77;;;2.25;;
33840;SDS011;20142;28.494;-16.312;2023-03-21T06:56:53;16.60;;;2.30;;
33840;SDS011;20142;28.494;-16.312;2023-03-21T07:01:56;23.45;;;2.67;;
33840;SDS011;20142;28.494;-16.312;2023-03-21T07:06:58;15.77;;;2.42;;
33840;SDS011;20142;28.494;-16.312;2023-03-21T07:11:59;16.45;;;2.42;;
33840;SDS011;20142;28.494;-16.312;2023-03-21T07:17:01;16.95;;;2.58;;
33840;SDS011;20142;28.494;-16.312;2023-03-21T07:22:03;23.48;;;2.70;;
33840;SDS011;20142;28.494;-16.312;2023-03-21T07:27:04;17.70;;;2.25;;
33840;SDS011;20142;28.494;-16.312;2023-03-21T07:32:06;20.80;;;2.80;;
33840;SDS011;20142;28.494;-16.312;2023-03-21T07:37:08;22.52;;;2.50;;
33840;SDS011;20142;28.494;-16.312;2023-03-21T07:42:09;20.48;;;3.15;;
33840;SDS011;20142;28.494;-16.312;2023-03-21T07:47:11;16.45;;;2.13;;
33840;SDS011;20142;28.494;-16.312;2023-03-21T07:52:13;17.50;;;3.00;;
33840;SDS011;20142;28.494;-16.312;2023-03-21T07:57:15;16.67;;;2.50;;
33840;SDS011;20142;28.494;-16.312;2023-03-21T08:02:17;18.38;;;2.70;;
33840;SDS011;20142;28.494;-16.312;2023-03-21T08:07:19;17.90;;;2.55;;
33840;SDS011;20142;28.494;-16.312;2023-03-21T08:12:20;17.38;;;2.17;;
33840;SDS011;20142;28.494;-16.312;2023-03-21T08:17:22;19.25;;;2.13;;
33840;SDS011;20142;28.494;-16.312;2023-03-21T08:22:24;20.77;;;3.13;;
33840;SDS011;20142;28.494;-16.312;2023-03-21T08:27:25;22.27;;;2.70;;
33840;SDS011;20142;28.494;-16.312;2023-03-21T08:32:27;23.55;;;3.72;;
33840;SDS011;20142;28.494;-16.312;2023-03-21T08:37:29;22.42;;;3.10;;
33840;SDS011;20142;28.494;-16.312;2023-03-21T08:42:31;25.17;;;2.75;;
33840;SDS011;20142;28.494;-16.312;2023-03-21T08:47:33;24.40;;;3.03;;
33840;SDS011;20142;28.494;-16.312;2023-03-21T08:52:35;14.80;;;2.80;;
33840;SDS011;20142;28.494;-16.312;2023-03-21T08:57:37;23.55;;;2.90;;
33840;SDS011;20142;28.494;-16.312;2023-03-21T09:02:39;28.42;;;3.08;;
33840;SDS011;20142;28.494;-16.312;2023-03-21T09:07:41;21.70;;;3.45;;
33840;SDS011;20142;28.494;-16.312;2023-03-21T09:12:44;21.45;;;2.85;;
33840;SDS011;20142;28.494;-16.312;2023-03-21T09:17:46;24.15;;;3.22;;
33840;SDS011;20142;28.494;-16.312;2023-03-21T09:22:50;21.83;;;3.38;;
33840;SDS011;20142;28.494;-16.312;2023-03-21T09:27:52;19.38;;;3.13;;
33840;SDS011;20142;28.494;-16.312;2023-03-21T09:32:54;21.80;;;3.50;;
33840;SDS011;20142;28.494;-16.312;2023-03-21T09:37:56;17.90;;;2.83;;
33840;SDS011;20142;28.494;-16.312;2023-03-21T09:48:40;18.48;;;3.33;;
33840;SDS011;20142;28.494;-16.312;2023-03-21T09:54:11;28.20;;;3.92;;
33840;SDS011;20142;28.494;-16.312;2023-03-21T09:59:22;25.52;;;3.72;;
33840;SDS011;20142;28.494;-16.312;2023-03-21T10:04:40;23.48;;;2.63;;
33840;SDS011;20142;28.494;-16.312;2023-03-21T10:09:44;30.05;;;3.83;;
33840;SDS011;20142;28.494;-16.312;2023-03-21T10:14:49;21.50;;;3.08;;
33840;SDS011;20142;28.494;-16.312;2023-03-21T10:20:06;28.00;;;2.97;;
33840;SDS011;20142;28.494;-16.312;2023-03-21T10:30:53;28.88;;;3.60;;
33840;SDS011;20142;28.494;-16.312;2023-03-21T10:35:58;26.92;;;3.33;;
33840;SDS011;20142;28.494;-16.312;2023-03-21T10:41:05;19.33;;;3.10;;
33840;SDS011;20142;28.494;-16.312;2023-03-21T10:46:08;21.92;;;3.30;;
33840;SDS011;20142;28.494;-16.312;2023-03-21T10:51:14;23.15;;;3.38;;
33840;SDS011;20142;28.494;-16.312;2023-03-21T10:56:29;24.85;;;3.58;;
33840;SDS011;20142;28.494;-16.312;2023-03-21T11:01:37;25.67;;;4.05;;
33840;SDS011;20142;28.494;-16.312;2023-03-21T11:06:44;19.60;;;3.22;;
33840;SDS011;20142;28.494;-16.312;2023-03-21T11:12:00;23.42;;;3.30;;
33840;SDS011;20142;28.494;-16.312;2023-03-21T11:22:19;27.65;;;3.65;;
33840;SDS011;20142;28.494;-16.312;2023-03-21T11:27:25;29.90;;;3.72;;
33840;SDS011;20142;28.494;-16.312;2023-03-21T11:32:31;28.70;;;4.45;;
33840;SDS011;20142;28.494;-16.312;2023-03-21T11:37:39;27.75;;;3.80;;
33840;SDS011;20142;28.494;-16.312;2023-03-21T11:42:51;26.42;;;4.03;;
33840;SDS011;20142;28.494;-16.312;2023-03-21T11:48:18;36.42;;;4.53;;
33840;SDS011;20142;28.494;-16.312;2023-03-21T11:53:44;25.70;;;3.55;;
33840;SDS011;20142;28.494;-16.312;2023-03-21T12:04:19;25.25;;;3.50;;
33840;SDS011;20142;28.494;-16.312;2023-03-21T12:09:45;26.25;;;3.85;;
33840;SDS011;20142;28.494;-16.312;2023-03-21T12:15:19;24.35;;;3.50;;
33840;SDS011;20142;28.494;-16.312;2023-03-21T12:36:38;21.40;;;3.53;;
33840;SDS011;20142;28.494;-16.312;2023-03-21T12:58:51;24.52;;;3.80;;
33840;SDS011;20142;28.494;-16.312;2023-03-21T13:09:42;27.35;;;4.00;;
33840;SDS011;20142;28.494;-16.312;2023-03-21T13:25:56;31.20;;;4.25;;
33840;SDS011;20142;28.494;-16.312;2023-03-21T13:31:18;29.00;;;3.65;;
33840;SDS011;20142;28.494;-16.312;2023-03-21T13:36:23;20.92;;;3.55;;
33840;SDS011;20142;28.494;-16.312;2023-03-21T13:41:32;18.88;;;3.33;;
33840;SDS011;20142;28.494;-16.312;2023-03-21T13:46:42;24.05;;;4.10;;
33840;SDS011;20142;28.494;-16.312;2023-03-21T13:51:52;20.10;;;2.95;;
33840;SDS011;20142;28.494;-16.312;2023-03-21T13:56:58;25.38;;;3.45;;
33840;SDS011;20142;28.494;-16.312;2023-03-21T14:02:18;32.00;;;3.78;;
33840;SDS011;20142;28.494;-16.312;2023-03-21T14:07:31;28.92;;;3.92;;
33840;SDS011;20142;28.494;-16.312;2023-03-21T14:12:41;30.35;;;4.13;;
33840;SDS011;20142;28.494;-16.312;2023-03-21T14:17:48;26.20;;;3.22;;
33840;SDS011;20142;28.494;-16.312;2023-03-21T14:22:56;27.92;;;3.05;;
33840;SDS011;20142;28.494;-16.312;2023-03-21T14:27:59;19.60;;;3.03;;
33840;SDS011;20142;28.494;-16.312;2023-03-21T14:33:26;26.13;;;3.75;;
33840;SDS011;20142;28.494;-16.312;2023-03-21T14:38:34;26.10;;;3.78;;
33840;SDS011;20142;28.494;-16.312;2023-03-21T14:43:37;22.35;;;3.22;;
33840;SDS011;20142;28.494;-16.312;2023-03-21T14:48:39;24.17;;;3.35;;
33840;SDS011;20142;28.494;-16.312;2023-03-21T14:53:41;23.50;;;3.17;;
33840;SDS011;20142;28.494;-16.312;2023-03-21T14:58:45;18.35;;;3.28;;
33840;SDS011;20142;28.494;-16.312;2023-03-21T15:03:48;19.70;;;3.05;;
33840;SDS011;20142;28.494;-16.312;2023-03-21T15:14:00;19.98;;;3.40;;
33840;SDS011;20142;28.494;-16.312;2023-03-21T15:19:05;21.98;;;3.78;;
33840;SDS011;20142;28.494;-16.312;2023-03-21T15:24:12;20.38;;;3.55;;
33840;SDS011;20142;28.494;-16.312;2023-03-21T15:29:22;20.00;;;3.35;;
33840;SDS011;20142;28.494;-16.312;2023-03-21T15:34:27;20.52;;;3.60;;
33840;SDS011;20142;28.494;-16.312;2023-03-21T15:39:30;19.05;;;3.28;;
33840;SDS011;20142;28.494;-16.312;2023-03-21T15:44:35;18.45;;;3.47;;
33840;SDS011;20142;28.494;-16.312;2023-03-21T15:49:38;17.98;;;2.97;;
33840;SDS011;20142;28.494;-16.312;2023-03-21T15:54:44;16.02;;;3.45;;
33840;SDS011;20142;28.494;-16.312;2023-03-21T15:59:55;14.05;;;3.28;;
33840;SDS011;20142;28.494;-16.312;2023-03-21T16:10:33;20.02;;;3.80;;
33840;SDS011;20142;28.494;-16.312;2023-03-21T16:15:37;20.38;;;3.63;;
33840;SDS011;20142;28.494;-16.312;2023-03-21T16:20:41;18.42;;;3.03;;
33840;SDS011;20142;28.494;-16.312;2023-03-21T16:25:45;16.63;;;3.15;;
33840;SDS011;20142;28.494;-16.312;2023-03-21T16:30:47;15.63;;;3.17;;
33840;SDS011;20142;28.494;-16.312;2023-03-21T16:35:49;18.08;;;3.70;;
33840;SDS011;20142;28.494;-16.312;2023-03-21T16:40:51;15.50;;;3.28;;
33840;SDS011;20142;28.494;-16.312;2023-03-21T16:45:53;24.05;;;3.50;;
33840;SDS011;20142;28.494;-16.312;2023-03-21T16:50:55;16.73;;;3.50;;
33840;SDS011;20142;28.494;-16.312;2023-03-21T16:55:56;22.70;;;3.47;;
33840;SDS011;20142;28.494;-16.312;2023-03-21T17:01:02;25.17;;;3.58;;
33840;SDS011;20142;28.494;-16.312;2023-03-21T17:06:03;14.98;;;3.28;;
33840;SDS011;20142;28.494;-16.312;2023-03-21T17:11:09;17.33;;;3.60;;
33840;SDS011;20142;28.494;-16.312;2023-03-21T17:16:17;17.08;;;3.95;;
33840;SDS011;20142;28.494;-16.312;2023-03-21T17:21:25;18.00;;;3.40;;
33840;SDS011;20142;28.494;-16.312;2023-03-21T17:26:29;16.92;;;3.45;;
33840;SDS011;20142;28.494;-16.312;2023-03-21T17:31:33;18.50;;;3.03;;
33840;SDS011;20142;28.494;-16.312;2023-03-21T17:36:37;14.70;;;3.00;;
33840;SDS011;20142;28.494;-16.312;2023-03-21T17:41:41;19.65;;;3.50;;
33840;SDS011;20142;28.494;-16.312;2023-03-21T17:46:43;16.92;;;3.05;;
33840;SDS011;20142;28.494;-16.312;2023-03-21T17:51:45;21.15;;;3.50;;
33840;SDS011;20142;28.494;-16.312;2023-03-21T17:56:46;16.95;;;3.15;;
33840;SDS011;20142;28.494;-16.312;2023-03-21T18:01:48;12.13;;;3.03;;
33840;SDS011;20142;28.494;-16.312;2023-03-21T18:06:50;15.63;;;2.90;;
33840;SDS011;20142;28.494;-16.312;2023-03-21T18:11:53;15.23;;;3.13;;
33840;SDS011;20142;28.494;-16.312;2023-03-21T18:16:55;11.38;;;2.53;;
33840;SDS011;20142;28.494;-16.312;2023-03-21T18:21:57;15.93;;;2.05;;
33840;SDS011;20142;28.494;-16.312;2023-03-21T18:26:58;14.48;;;2.38;;
33840;SDS011;20142;28.494;-16.312;2023-03-21T18:32:00;17.83;;;2.65;;
33840;SDS011;20142;28.494;-16.312;2023-03-21T18:37:03;19.83;;;2.95;;
33840;SDS011;20142;28.494;-16.312;2023-03-21T18:42:07;18.88;;;2.90;;
33840;SDS011;20142;28.494;-16.312;2023-03-21T18:47:08;17.50;;;1.95;;
33840;SDS011;20142;28.494;-16.312;2023-03-21T18:52:10;14.70;;;2.55;;
33840;SDS011;20142;28.494;-16.312;2023-03-21T18:57:12;11.80;;;2.10;;
33840;SDS011;20142;28.494;-16.312;2023-03-21T19:02:17;16.02;;;2.33;;
33840;SDS011;20142;28.494;-16.312;2023-03-21T19:07:18;12.90;;;2.25;;
33840;SDS011;20142;28.494;-16.312;2023-03-21T19:12:20;12.20;;;2.00;;
33840;SDS011;20142;28.494;-16.312;2023-03-21T19:17:22;14.10;;;2.65;;
33840;SDS011;20142;28.494;-16.312;2023-03-21T19:22:24;25.17;;;3.60;;
33840;SDS011;20142;28.494;-16.312;2023-03-21T19:27:29;18.83;;;3.22;;
33840;SDS011;20142;28.494;-16.312;2023-03-21T19:32:30;23.98;;;3.03;;
33840;SDS011;20142;28.494;-16.312;2023-03-21T19:37:32;23.95;;;2.60;;
33840;SDS011;20142;28.494;-16.312;2023-03-21T19:42:35;21.30;;;2.78;;
33840;SDS011;20142;28.494;-16.312;2023-03-21T19:47:37;19.80;;;2.80;;
33840;SDS011;20142;28.494;-16.312;2023-03-21T19:52:39;21.50;;;2.75;;
33840;SDS011;20142;28.494;-16.312;2023-03-21T19:57:40;17.42;;;3.25;;
33840;SDS011;20142;28.494;-16.312;2023-03-21T20:02:42;20.02;;;2.85;;
33840;SDS011;20142;28.494;-16.312;2023-03-21T20:07:45;20.85;;;2.55;;
33840;SDS011;20142;28.494;-16.312;2023-03-21T20:12:47;16.05;;;2.58;;
33840;SDS011;20142;28.494;-16.312;2023-03-21T20:17:48;23.27;;;3.38;;
33840;SDS011;20142;28.494;-16.312;2023-03-21T20:22:50;20.73;;;2.95;;
33840;SDS011;20142;28.494;-16.312;2023-03-21T20:27:53;20.95;;;2.63;;
33840;SDS011;20142;28.494;-16.312;2023-03-21T20:32:55;24.77;;;2.78;;
33840;SDS011;20142;28.494;-16.312;2023-03-21T20:37:57;16.80;;;3.38;;
33840;SDS011;20142;28.494;-16.312;2023-03-21T20:42:59;22.05;;;2.90;;
33840;SDS011;20142;28.494;-16.312;2023-03-21T20:48:01;20.23;;;2.50;;
33840;SDS011;20142;28.494;-16.312;2023-03-21T20:53:03;19.02;;;2.58;;
33840;SDS011;20142;28.494;-16.312;2023-03-21T20:58:05;18.27;;;2.63;;
33840;SDS011;20142;28.494;-16.312;2023-03-21T21:03:09;17.83;;;2.90;;
33840;SDS011;20142;28.494;-16.312;2023-03-21T21:08:12;20.52;;;2.50;;
33840;SDS011;20142;28.494;-16.312;2023-03-21T21:13:18;21.05;;;2.83;;
33840;SDS011;20142;28.494;-16.312;2023-03-21T21:18:20;22.70;;;3.38;;
33840;SDS011;20142;28.494;-16.312;2023-03-21T21:23:22;17.33;;;2.15;;
33840;SDS011;20142;28.494;-16.312;2023-03-21T21:28:27;16.63;;;2.50;;
33840;SDS011;20142;28.494;-16.312;2023-03-21T21:33:31;15.93;;;2.35;;
33840;SDS011;20142;28.494;-16.312;2023-03-21T21:38:35;27.52;;;3.15;;
33840;SDS011;20142;28.494;-16.312;2023-03-21T21:43:37;20.88;;;3.00;;
33840;SDS011;20142;28.494;-16.312;2023-03-21T21:48:39;18.23;;;3.40;;
33840;SDS011;20142;28.494;-16.312;2023-03-21T21:53:41;24.15;;;2.90;;
33840;SDS011;20142;28.494;-16.312;2023-03-21T21:58:45;19.92;;;3.05;;
33840;SDS011;20142;28.494;-16.312;2023-03-21T22:03:47;24.08;;;3.10;;
33840;SDS011;20142;28.494;-16.312;2023-03-21T22:08:51;19.70;;;3.40;;
33840;SDS011;20142;28.494;-16.312;2023-03-21T22:13:52;27.17;;;3.65;;
33840;SDS011;20142;28.494;-16.312;2023-03-21T22:18:54;25.23;;;4.10;;
33840;SDS011;20142;28.494;-16.312;2023-03-21T22:23:56;27.33;;;3.67;;
33840;SDS011;20142;28.494;-16.312;2023-03-21T22:28:57;21.67;;;3.80;;
33840;SDS011;20142;28.494;-16.312;2023-03-21T22:34:01;19.08;;;3.20;;
33840;SDS011;20142;28.494;-16.312;2023-03-21T22:39:02;20.95;;;2.92;;
33840;SDS011;20142;28.494;-16.312;2023-03-21T22:44:04;25.23;;;3.60;;
33840;SDS011;20142;28.494;-16.312;2023-03-21T22:49:05;16.65;;;3.13;;
33840;SDS011;20142;28.494;-16.312;2023-03-21T22:54:07;23.95;;;3.28;;
33840;SDS011;20142;28.494;-16.312;2023-03-21T22:59:09;21.88;;;3.45;;
33840;SDS011;20142;28.494;-16.312;2023-03-21T23:04:11;16.27;;;3.28;;
33840;SDS011;20142;28.494;-16.312;2023-03-21T23:09:12;17.80;;;2.80;;
33840;SDS011;20142;28.494;-16.312;2023-03-21T23:14:15;23.02;;;3.15;;
33840;SDS011;20142;28.494;-16.312;2023-03-21T23:19:23;15.05;;;2.83;;
33840;SDS011;20142;28.494;-16.312;2023-03-21T23:24:28;18.40;;;2.80;;
33840;SDS011;20142;28.494;-16.312;2023-03-21T23:29:29;15.35;;;3.28;;
33840;SDS011;20142;28.494;-16.312;2023-03-21T23:34:31;21.52;;;2.90;;
33840;SDS011;20142;28.494;-16.312;2023-03-21T23:39:33;19.52;;;3.13;;
33840;SDS011;20142;28.494;-16.312;2023-03-21T23:44:35;20.23;;;2.88;;
33840;SDS011;20142;28.494;-16.312;2023-03-21T23:49:36;15.25;;;2.53;;
33840;SDS011;20142;28.494;-16.312;2023-03-21T23:54:38;22.77;;;2.92;;
33840;SDS011;20142;28.494;-16.312;2023-03-21T23:59:40;21.95;;;2.88;;
